createdAt,value
2022-08-26T00:02:11.539Z,98076.75
2022-08-26T00:04:39.156Z,98076.38
2022-08-26T00:07:06.736Z,98076.50
2022-08-26T00:09:37.245Z,98075.25
2022-08-26T00:12:09.549Z,98071.41
2022-08-26T00:14:40.081Z,98065.38
2022-08-26T00:17:08.642Z,98070.28
2022-08-26T00:19:36.960Z,98063.72
2022-08-26T00:22:04.430Z,98065.88
2022-08-26T00:24:32.723Z,98061.16
2022-08-26T00:27:00.047Z,98062.94
2022-08-26T00:29:28.517Z,98064.06
2022-08-26T00:31:59.332Z,98069.06
2022-08-26T00:34:27.034Z,98070.75
2022-08-26T00:36:55.852Z,98077.06
2022-08-26T00:39:23.201Z,98082.41
2022-08-26T00:41:50.666Z,98081.81
2022-08-26T00:44:19.548Z,98081.69
2022-08-26T00:46:58.345Z,98086.88
2022-08-26T00:49:44.293Z,98083.84
2022-08-26T00:52:19.888Z,98079.69
2022-08-26T00:55:12.144Z,98079.81
2022-08-26T00:57:50.676Z,98072.31
2022-08-26T01:00:28.344Z,98089.16
2022-08-26T01:03:00.342Z,98080.34
2022-08-26T01:05:28.775Z,98078.69
2022-08-26T01:07:58.293Z,98082.84
2022-08-26T01:10:31.247Z,98080.13
2022-08-26T01:13:10.393Z,98072.91
2022-08-26T01:15:51.828Z,98076.53
2022-08-26T01:18:21.506Z,98077.34
2022-08-26T01:21:33.649Z,98084.88
2022-08-26T01:24:01.969Z,98079.09
2022-08-26T01:26:41.528Z,98082.91
2022-08-26T01:29:18.957Z,98078.78
2022-08-26T01:31:59.673Z,98082.66
2022-08-26T01:34:35.156Z,98087.09
2022-08-26T01:37:23.149Z,98075.00
2022-08-26T01:39:57.457Z,98082.97
2022-08-26T01:42:27.406Z,98084.31
2022-08-26T01:45:19.901Z,98078.56
2022-08-26T01:47:56.521Z,98091.25
2022-08-26T01:50:32.633Z,98076.34
2022-08-26T01:53:09.759Z,98087.97
2022-08-26T01:55:44.837Z,98085.78
2022-08-26T01:58:52.151Z,98098.50
2022-08-26T02:01:22.350Z,98094.91
2022-08-26T02:04:34.437Z,98085.53
2022-08-26T02:07:09.628Z,98092.16
2022-08-26T02:09:41.904Z,98097.41
2022-08-26T02:12:12.592Z,98102.09
2022-08-26T02:14:50.166Z,98107.06
2022-08-26T02:17:42.665Z,98103.19
2022-08-26T02:20:16.697Z,98110.34
2022-08-26T02:22:45.422Z,98096.56
2022-08-26T02:25:56.900Z,98111.75
2022-08-26T02:28:28.655Z,98107.06
2022-08-26T02:30:55.998Z,98102.94
2022-08-26T02:33:23.333Z,98105.94
2022-08-26T02:35:51.778Z,98106.78
2022-08-26T02:38:20.155Z,98114.53
2022-08-26T02:40:48.241Z,98104.28
2022-08-26T02:43:15.724Z,98110.94
2022-08-26T02:45:43.595Z,98105.94
2022-08-26T02:48:19.653Z,98104.56
2022-08-26T02:50:48.753Z,98098.53
2022-08-26T02:53:17.214Z,98109.28
2022-08-26T02:55:51.888Z,98103.22
2022-08-26T02:58:19.256Z,98101.00
2022-08-26T03:00:52.879Z,98091.63
2022-08-26T03:03:22.406Z,98098.78
2022-08-26T03:05:52.063Z,98097.41
2022-08-26T03:08:20.668Z,98100.97
2022-08-26T03:10:48.324Z,98094.13
2022-08-26T03:13:17.274Z,98095.75
2022-08-26T03:15:47.584Z,98099.31
2022-08-26T03:18:16.062Z,98095.22
2022-08-26T03:20:44.009Z,98098.53
2022-08-26T03:23:12.504Z,98097.69
2022-08-26T03:25:40.164Z,98099.34
2022-08-26T03:28:07.789Z,98098.78
2022-08-26T03:30:45.073Z,98102.91
2022-08-26T03:33:14.642Z,98098.25
2022-08-26T03:35:46.955Z,98096.56
2022-08-26T03:38:15.149Z,98092.41
2022-08-26T03:40:44.380Z,98098.50
2022-08-26T03:43:14.329Z,98104.56
2022-08-26T03:45:42.595Z,98104.28
2022-08-26T03:48:11.454Z,98101.81
2022-08-26T03:50:39.615Z,98102.06
2022-08-26T03:53:07.432Z,98100.41
2022-08-26T03:55:42.317Z,98101.44
2022-08-26T03:58:10.927Z,98096.81
2022-08-26T04:00:38.661Z,98099.22
2022-08-26T04:03:06.163Z,98092.06
2022-08-26T04:05:37.797Z,98091.50
2022-08-26T04:08:06.988Z,98093.72
2022-08-26T04:10:38.312Z,98086.53
2022-08-26T04:13:05.693Z,98093.41
2022-08-26T04:15:33.949Z,98095.34
2022-08-26T04:18:01.564Z,98089.28
2022-08-26T04:20:28.889Z,98095.09
2022-08-26T04:22:56.314Z,98085.97
2022-08-26T04:25:24.432Z,98091.78
2022-08-26T04:27:52.199Z,98092.84
2022-08-26T04:30:20.142Z,98095.91
2022-08-26T04:32:49.954Z,98091.72
2022-08-26T04:35:17.783Z,98096.72
2022-08-26T04:37:45.640Z,98093.66
2022-08-26T04:40:13.422Z,98095.88
2022-08-26T04:42:41.964Z,98098.03
2022-08-26T04:45:11.785Z,98109.66
2022-08-26T04:47:39.261Z,98118.16
2022-08-26T04:50:08.655Z,98121.47
2022-08-26T04:52:38.664Z,98131.09
2022-08-26T04:55:08.415Z,98120.03
2022-08-26T04:57:36.681Z,98125.56
2022-08-26T05:00:12.683Z,98129.66
2022-08-26T05:02:41.197Z,98131.50
2022-08-26T05:05:10.555Z,98139.81
2022-08-26T05:07:38.163Z,98137.09
2022-08-26T05:10:08.748Z,98138.22
2022-08-26T05:12:36.311Z,98134.00
2022-08-26T05:15:06.868Z,98133.50
2022-08-26T05:17:34.173Z,98132.72
2022-08-26T05:20:01.646Z,98141.81
2022-08-26T05:22:29.015Z,98145.41
2022-08-26T05:24:56.342Z,98138.81
2022-08-26T05:27:23.649Z,98150.69
2022-08-26T05:29:54.366Z,98142.09
2022-08-26T05:32:21.979Z,98143.53
2022-08-26T05:34:55.379Z,98150.41
2022-08-26T05:37:23.323Z,98146.84
2022-08-26T05:39:51.166Z,98142.78
2022-08-26T05:42:19.920Z,98149.28
2022-08-26T05:44:55.956Z,98151.25
2022-08-26T05:47:25.044Z,98154.91
2022-08-26T05:49:52.437Z,98143.59
2022-08-26T05:52:20.844Z,98147.72
2022-08-26T05:54:53.211Z,98151.09
2022-08-26T05:57:20.788Z,98154.38
2022-08-26T05:59:51.662Z,98153.38
2022-08-26T06:02:19.415Z,98156.41
2022-08-26T06:04:46.757Z,98159.72
2022-08-26T06:07:14.178Z,98161.94
2022-08-26T06:09:41.773Z,98155.59
2022-08-26T06:12:09.730Z,98157.00
2022-08-26T06:14:37.075Z,98161.13
2022-08-26T06:17:04.607Z,98159.50
2022-08-26T06:19:33.022Z,98160.59
2022-08-26T06:22:23.864Z,98161.44
2022-08-26T06:25:10.184Z,98165.03
2022-08-26T06:27:37.607Z,98152.03
2022-08-26T06:30:06.072Z,98162.25
2022-08-26T06:32:33.729Z,98159.75
2022-08-26T06:35:01.549Z,98167.78
2022-08-26T06:37:28.915Z,98168.03
2022-08-26T06:39:56.600Z,98161.75
2022-08-26T06:42:24.995Z,98175.25
2022-08-26T06:44:52.616Z,98171.91
2022-08-26T06:47:20.273Z,98163.63
2022-08-26T06:49:48.147Z,98175.47
2022-08-26T06:52:22.519Z,98174.91
2022-08-26T06:54:51.842Z,98176.84
2022-08-26T06:57:20.361Z,98171.88
2022-08-26T06:59:48.769Z,98168.84
2022-08-26T07:02:19.085Z,98170.75
2022-08-26T07:04:48.127Z,98166.59
2022-08-26T07:07:18.593Z,98170.16
2022-08-26T07:09:49.279Z,98169.63
2022-08-26T07:12:20.469Z,98170.72
2022-08-26T07:14:48.477Z,98181.22
2022-08-26T07:17:16.495Z,98180.38
2022-08-26T07:19:43.987Z,98180.94
2022-08-26T07:22:11.689Z,98185.09
2022-08-26T07:24:42.311Z,98177.53
2022-08-26T07:27:16.785Z,98190.81
2022-08-26T07:29:44.981Z,98189.16
2022-08-26T07:32:18.922Z,98189.91
2022-08-26T07:34:46.476Z,98194.09
2022-08-26T07:37:14.265Z,98190.72
2022-08-26T07:39:43.224Z,98191.31
2022-08-26T07:42:14.758Z,98190.16
2022-08-26T07:44:43.597Z,98196.50
2022-08-26T07:47:24.843Z,98195.09
2022-08-26T07:49:57.960Z,98183.44
2022-08-26T07:52:30.697Z,98191.22
2022-08-26T07:55:03.015Z,98201.44
2022-08-26T07:57:31.192Z,98199.53
2022-08-26T07:59:59.774Z,98190.88
2022-08-26T08:02:29.681Z,98192.88
2022-08-26T08:04:58.413Z,98195.88
2022-08-26T08:07:44.327Z,98197.25
2022-08-26T08:10:26.634Z,98200.81
2022-08-26T08:12:56.761Z,98192.75
2022-08-26T08:15:31.061Z,98201.53
2022-08-26T08:18:00.921Z,98200.44
2022-08-26T08:20:29.904Z,98198.09
2022-08-26T08:22:57.404Z,98205.59
2022-08-26T08:25:25.093Z,98199.19
2022-08-26T08:27:52.428Z,98201.59
2022-08-26T08:30:23.463Z,98193.59
2022-08-26T08:32:52.558Z,98197.72
2022-08-26T08:35:22.526Z,98198.41
2022-08-26T08:37:54.284Z,98204.28
2022-08-26T08:40:26.620Z,98200.38
2022-08-26T08:43:39.737Z,98202.03
2022-08-26T08:46:15.199Z,98197.38
2022-08-26T08:48:57.034Z,98204.28
2022-08-26T08:52:13.437Z,98199.50
2022-08-26T08:54:40.743Z,98209.78
2022-08-26T08:57:28.513Z,98208.63
2022-08-26T09:00:16.905Z,98209.06
2022-08-26T09:03:36.705Z,98208.19
2022-08-26T09:06:16.866Z,98205.44
2022-08-26T09:08:50.697Z,98206.06
2022-08-26T09:11:20.725Z,98203.31
2022-08-26T09:13:55.488Z,98195.84
2022-08-26T09:17:16.969Z,98200.31
2022-08-26T09:20:18.937Z,98202.50
2022-08-26T09:22:46.360Z,98190.81
2022-08-26T09:25:15.994Z,98207.81
2022-08-26T09:27:52.693Z,98202.78
2022-08-26T09:30:34.801Z,98217.00
2022-08-26T09:33:11.146Z,98208.66
2022-08-26T09:35:48.766Z,98203.81
2022-08-26T09:38:34.880Z,98215.06
2022-08-26T09:41:21.185Z,98214.69
2022-08-26T09:44:21.820Z,98209.13
2022-08-26T09:47:05.516Z,98200.75
2022-08-26T09:49:40.409Z,98203.91
2022-08-26T09:52:23.944Z,98206.63
2022-08-26T09:55:23.601Z,98206.28
2022-08-26T09:57:55.352Z,98201.47
2022-08-26T10:00:56.411Z,98182.88
2022-08-26T10:03:35.017Z,98190.09
2022-08-26T10:06:28.727Z,98180.91
2022-08-26T10:09:00.094Z,98178.91
2022-08-26T10:12:01.694Z,98178.38
2022-08-26T10:14:56.206Z,98178.97
2022-08-26T10:17:50.166Z,98173.28
2022-08-26T10:20:36.186Z,98166.56
2022-08-26T10:23:18.849Z,98165.38
2022-08-26T10:25:51.704Z,98163.75
2022-08-26T10:29:09.864Z,98162.91
2022-08-26T10:32:13.880Z,98157.69
2022-08-26T10:34:42.295Z,98147.88
2022-08-26T10:37:22.740Z,98166.13
2022-08-26T10:40:35.758Z,98148.59
2022-08-26T10:43:25.610Z,98154.31
2022-08-26T10:46:08.667Z,98153.91
2022-08-26T10:48:56.390Z,98140.16
2022-08-26T10:52:01.048Z,98145.47
2022-08-26T10:54:59.705Z,98151.19
2022-08-26T10:58:05.097Z,98144.19
2022-08-26T11:01:10.404Z,98132.41
2022-08-26T11:04:48.514Z,98131.03
2022-08-26T11:07:56.104Z,98124.03
2022-08-26T11:10:24.214Z,98124.66
2022-08-26T11:13:03.496Z,98117.41
2022-08-26T11:15:30.560Z,98117.56
2022-08-26T11:18:11.919Z,98122.03
2022-08-26T11:20:47.125Z,98124.53
2022-08-26T11:23:23.284Z,98120.94
2022-08-26T11:25:57.773Z,98117.31
2022-08-26T11:28:58.293Z,98114.00
2022-08-26T11:31:25.514Z,98109.63
2022-08-26T11:34:10.813Z,98109.19
2022-08-26T11:36:46.348Z,98108.16
2022-08-26T11:39:57.277Z,98112.22
2022-08-26T11:43:00.659Z,98104.13
2022-08-26T11:45:40.015Z,98110.13
2022-08-26T11:48:36.674Z,98102.63
2022-08-26T11:51:18.531Z,98104.78
2022-08-26T11:53:47.741Z,98112.47
2022-08-26T11:56:33.901Z,98109.59
2022-08-26T11:59:10.834Z,98107.38
2022-08-26T12:01:44.121Z,98102.28
2022-08-26T12:04:32.134Z,98102.16
2022-08-26T12:07:01.997Z,98099.50
2022-08-26T12:09:36.504Z,98095.06
2022-08-26T12:12:38.710Z,98088.72
2022-08-26T12:15:22.143Z,98089.44
2022-08-26T12:17:54.344Z,98084.53
2022-08-26T12:20:54.311Z,98082.34
2022-08-26T12:23:52.713Z,98083.69
2022-08-26T12:26:37.005Z,98101.97
2022-08-26T12:29:31.485Z,98103.63
2022-08-26T12:32:19.113Z,98088.41
2022-08-26T12:34:48.988Z,98097.75
2022-08-26T12:37:18.921Z,98092.06
2022-08-26T12:39:46.304Z,98106.81
2022-08-26T12:42:13.356Z,98082.72
2022-08-26T12:45:06.572Z,98080.50
2022-08-26T12:47:44.408Z,98087.09
2022-08-26T12:50:36.544Z,98088.59
2022-08-26T12:53:23.052Z,98086.22
2022-08-26T12:55:56.129Z,98081.63
2022-08-26T12:58:31.661Z,98081.03
2022-08-26T13:01:05.214Z,98076.19
2022-08-26T13:03:37.235Z,98087.28
2022-08-26T13:06:23.484Z,98076.09
2022-08-26T13:09:07.458Z,98072.41
2022-08-26T13:11:40.644Z,98076.34
2022-08-26T13:14:23.710Z,98079.66
2022-08-26T13:16:53.299Z,98080.44
2022-08-26T13:19:25.856Z,98080.97
2022-08-26T13:22:00.700Z,98099.44
2022-08-26T13:24:41.917Z,98074.91
2022-08-26T13:27:14.614Z,98080.16
2022-08-26T13:29:42.237Z,98078.25
2022-08-26T13:32:09.952Z,98100.31
2022-08-26T13:34:38.615Z,98087.47
2022-08-26T13:37:07.048Z,98077.81
2022-08-26T13:39:34.385Z,98082.72
2022-08-26T13:42:01.816Z,98084.31
2022-08-26T13:44:29.136Z,98080.13
2022-08-26T13:46:56.444Z,98088.41
2022-08-26T13:49:24.717Z,98079.59
2022-08-26T13:51:52.071Z,98080.78
2022-08-26T13:54:20.004Z,98078.91
2022-08-26T13:56:47.499Z,98065.84
2022-08-26T13:59:14.879Z,98073.16
2022-08-26T14:01:42.313Z,98063.53
2022-08-26T14:04:09.606Z,98061.78
2022-08-26T14:06:37.370Z,98055.69
2022-08-26T14:09:05.455Z,98068.88
2022-08-26T14:11:39.078Z,98071.06
2022-08-26T14:14:20.309Z,98066.94
2022-08-26T14:16:58.909Z,98072.84
2022-08-26T14:19:31.464Z,98066.38
2022-08-26T14:22:00.947Z,98063.91
2022-08-26T14:24:28.988Z,98050.13
2022-08-26T14:26:56.512Z,98052.56
2022-08-26T14:29:23.846Z,98045.81
2022-08-26T14:31:51.165Z,98048.22
2022-08-26T14:34:18.645Z,98047.38
2022-08-26T14:36:46.054Z,98037.84
2022-08-26T14:39:14.650Z,98047.88
2022-08-26T14:41:54.575Z,98045.94
2022-08-26T14:44:33.629Z,98027.06
2022-08-26T14:47:06.062Z,98033.25
2022-08-26T14:49:33.410Z,98034.50
2022-08-26T14:52:00.848Z,98034.91
2022-08-26T14:54:29.408Z,98042.31
2022-08-26T14:57:07.209Z,98038.41
2022-08-26T14:59:50.113Z,98033.81
2022-08-26T15:02:32.412Z,98035.72
2022-08-26T15:05:02.809Z,98030.81
2022-08-26T15:07:30.505Z,98044.53
2022-08-26T15:09:58.819Z,98029.28
2022-08-26T15:12:28.547Z,98036.50
2022-08-26T15:14:55.868Z,98034.38
2022-08-26T15:17:23.473Z,98040.38
2022-08-26T15:19:51.152Z,98024.22
2022-08-26T15:22:18.780Z,98028.84
2022-08-26T15:24:46.537Z,98026.25
2022-08-26T15:27:13.967Z,98024.44
2022-08-26T15:29:41.533Z,98029.94
2022-08-26T15:32:08.905Z,98034.00
2022-08-26T15:34:36.680Z,98019.22
2022-08-26T15:37:05.458Z,98024.84
2022-08-26T15:39:34.607Z,98036.47
2022-08-26T15:42:02.961Z,98037.34
2022-08-26T15:44:30.480Z,98034.09
2022-08-26T15:46:58.993Z,98031.16
2022-08-26T15:49:27.523Z,98040.50
2022-08-26T15:51:55.204Z,98052.56
2022-08-26T15:54:24.142Z,98045.97
2022-08-26T15:56:53.840Z,98043.53
2022-08-26T15:59:22.724Z,98057.44
2022-08-26T16:01:50.430Z,98052.00
2022-08-26T16:04:18.599Z,98058.00
2022-08-26T16:06:50.171Z,98061.66
2022-08-26T16:09:19.266Z,98064.75
2022-08-26T16:11:46.622Z,98071.31
2022-08-26T16:14:14.002Z,98069.19
2022-08-26T16:16:41.693Z,98069.13
2022-08-26T16:19:10.099Z,98067.03
2022-08-26T16:21:38.399Z,98058.63
2022-08-26T16:24:06.619Z,98074.66
2022-08-26T16:26:38.769Z,98068.38
2022-08-26T16:29:15.493Z,98061.28
2022-08-26T16:31:43.047Z,98061.91
2022-08-26T16:34:10.740Z,98051.94
2022-08-26T16:36:39.945Z,98056.28
2022-08-26T16:39:09.392Z,98061.22
2022-08-26T16:41:36.975Z,98063.41
2022-08-26T16:44:09.619Z,98068.00
2022-08-26T16:46:37.168Z,98066.97
2022-08-26T16:49:04.834Z,98070.72
2022-08-26T16:51:32.626Z,98074.91
2022-08-26T16:54:07.465Z,98080.06
2022-08-26T16:56:36.501Z,98081.47
2022-08-26T16:59:11.469Z,98084.03
2022-08-26T17:01:40.657Z,98083.00
2022-08-26T17:04:08.180Z,98084.63
2022-08-26T17:06:35.576Z,98093.41
2022-08-26T17:09:03.072Z,98088.38
2022-08-26T17:11:30.885Z,98098.50
2022-08-26T17:13:58.241Z,98104.44
2022-08-26T17:16:27.188Z,98113.03
2022-08-26T17:18:58.511Z,98115.69
2022-08-26T17:21:28.018Z,98141.81
2022-08-26T17:23:56.379Z,98154.47
2022-08-26T17:26:23.993Z,98163.06
2022-08-26T17:28:51.565Z,98168.88
2022-08-26T17:31:19.432Z,98168.63
2022-08-26T17:33:53.781Z,98179.88
2022-08-26T17:36:28.009Z,98170.88
2022-08-26T17:38:58.048Z,98176.06
2022-08-26T17:41:27.162Z,98178.53
2022-08-26T17:43:54.950Z,98177.44
2022-08-26T17:46:23.138Z,98182.88
2022-08-26T17:48:50.578Z,98167.16
2022-08-26T17:51:19.492Z,98165.81
2022-08-26T17:53:47.949Z,98155.69
2022-08-26T17:56:24.146Z,98156.47
2022-08-26T17:58:56.833Z,98157.06
2022-08-26T18:01:28.441Z,98158.97
2022-08-26T18:04:00.263Z,98160.66
2022-08-26T18:06:30.847Z,98159.88
2022-08-26T18:08:59.887Z,98155.97
2022-08-26T18:11:28.291Z,98153.09
2022-08-26T18:13:55.857Z,98150.03
2022-08-26T18:16:23.637Z,98152.59
2022-08-26T18:18:54.396Z,98161.19
2022-08-26T18:21:27.812Z,98159.22
2022-08-26T18:23:55.397Z,98147.78
2022-08-26T18:26:37.680Z,98145.09
2022-08-26T18:29:07.563Z,98145.81
2022-08-26T18:31:34.964Z,98148.38
2022-08-26T18:34:03.409Z,98153.03
2022-08-26T18:36:36.717Z,98147.09
2022-08-26T18:39:07.402Z,98152.66
2022-08-26T18:41:47.813Z,98156.22
2022-08-26T18:44:20.192Z,98160.53
2022-08-26T18:46:48.098Z,98152.94
2022-08-26T18:49:20.652Z,98157.88
2022-08-26T18:51:51.024Z,98163.28
2022-08-26T18:56:47.992Z,98160.34
2022-08-26T18:59:15.515Z,98152.34
2022-08-26T19:01:43.638Z,98158.34
2022-08-26T19:04:15.564Z,98155.31
2022-08-26T19:06:47.615Z,98164.50
2022-08-26T19:09:17.989Z,98164.97
2022-08-26T19:11:46.877Z,98169.22
2022-08-26T19:14:17.679Z,98167.13
2022-08-26T19:16:50.601Z,98168.00
2022-08-26T19:19:20.573Z,98165.13
2022-08-26T19:21:48.041Z,98158.91
2022-08-26T19:24:18.489Z,98172.63
2022-08-26T19:26:57.887Z,98175.41
2022-08-26T19:29:36.374Z,98179.53
2022-08-26T19:32:05.730Z,98179.03
2022-08-26T19:34:33.051Z,98186.38
2022-08-26T19:37:00.426Z,98186.84
2022-08-26T19:39:30.030Z,98186.59
2022-08-26T19:41:57.561Z,98186.63
2022-08-26T19:44:43.554Z,98191.59
2022-08-26T19:47:12.173Z,98188.41
2022-08-26T19:49:39.992Z,98187.47
2022-08-26T19:52:07.844Z,98201.59
2022-08-26T19:54:36.154Z,98193.66
2022-08-26T19:57:05.096Z,98208.34
2022-08-26T19:59:33.120Z,98211.31
2022-08-26T20:02:01.836Z,98210.31
2022-08-26T20:04:32.636Z,98216.84
2022-08-26T20:07:02.253Z,98223.94
2022-08-26T20:09:34.030Z,98231.09
2022-08-26T20:12:05.464Z,98234.03
2022-08-26T20:14:36.014Z,98240.44
2022-08-26T20:17:06.481Z,98240.94
2022-08-26T20:19:53.296Z,98217.47
2022-08-26T20:22:22.176Z,98218.03
2022-08-26T20:24:49.603Z,98221.94
2022-08-26T20:27:17.777Z,98217.72
2022-08-26T20:29:45.145Z,98217.91
2022-08-26T20:32:12.819Z,98226.22
2022-08-26T20:34:40.299Z,98228.03
2022-08-26T20:37:08.493Z,98225.50
2022-08-26T20:39:36.244Z,98238.41
2022-08-26T20:42:05.160Z,98227.16
2022-08-26T20:44:33.944Z,98222.50
2022-08-26T20:47:01.531Z,98226.09
2022-08-26T20:49:31.412Z,98222.44
2022-08-26T20:52:02.257Z,98221.63
2022-08-26T20:54:30.425Z,98212.97
2022-08-26T20:56:59.815Z,98222.81
2022-08-26T20:59:29.083Z,98214.03
2022-08-26T21:01:56.753Z,98219.81
2022-08-26T21:04:27.571Z,98224.59
2022-08-26T21:06:58.299Z,98223.16
2022-08-26T21:09:27.276Z,98215.38
2022-08-26T21:11:55.910Z,98217.63
2022-08-26T21:14:25.671Z,98222.34
2022-08-26T21:16:54.762Z,98229.56
2022-08-26T21:19:22.176Z,98231.72
2022-08-26T21:21:50.076Z,98240.53
2022-08-26T21:24:18.097Z,98243.28
2022-08-26T21:26:46.021Z,98251.16
2022-08-26T21:29:14.214Z,98244.53
2022-08-26T21:31:46.363Z,98252.84
2022-08-26T21:34:19.602Z,98237.94
2022-08-26T21:36:48.336Z,98237.38
2022-08-26T21:39:16.721Z,98240.38
2022-08-26T21:41:45.705Z,98216.38
2022-08-26T21:44:17.725Z,98226.06
2022-08-26T21:46:46.947Z,98229.09
2022-08-26T21:49:16.718Z,98237.91
2022-08-26T21:51:48.334Z,98241.25
2022-08-26T21:54:18.112Z,98238.97
2022-08-26T21:56:47.343Z,98231.03
2022-08-26T21:59:19.042Z,98248.13
2022-08-26T22:01:46.577Z,98243.44
2022-08-26T22:04:14.935Z,98247.31
2022-08-26T22:06:53.738Z,98248.41
2022-08-26T22:09:27.921Z,98254.47
2022-08-26T22:11:56.840Z,98257.25
2022-08-26T22:14:30.670Z,98257.25
2022-08-26T22:16:59.849Z,98255.06
2022-08-26T22:19:27.345Z,98270.78
2022-08-26T22:21:56.085Z,98269.13
2022-08-26T22:24:27.057Z,98260.00
2022-08-26T22:26:56.033Z,98253.66
2022-08-26T22:29:25.065Z,98266.09
2022-08-26T22:31:53.198Z,98260.31
2022-08-26T22:34:22.864Z,98266.91
2022-08-26T22:36:50.618Z,98264.97
2022-08-26T22:39:23.967Z,98255.84
2022-08-26T22:41:54.238Z,98256.72
2022-08-26T22:44:22.486Z,98262.25
2022-08-26T22:46:54.281Z,98249.78
2022-08-26T22:49:22.841Z,98249.78
2022-08-26T22:51:51.106Z,98248.16
2022-08-26T22:54:18.484Z,98247.88
2022-08-26T22:56:45.967Z,98245.41
2022-08-26T22:59:13.672Z,98252.78
2022-08-26T23:01:44.526Z,98247.59
2022-08-26T23:04:12.163Z,98244.84
2022-08-26T23:06:47.559Z,98245.38
2022-08-26T23:09:18.394Z,98244.84
2022-08-26T23:11:49.258Z,98256.69
2022-08-26T23:14:19.197Z,98261.41
2022-08-26T23:16:50.029Z,98257.81
2022-08-26T23:19:22.633Z,98258.38
2022-08-26T23:21:51.220Z,98251.75
2022-08-26T23:24:19.046Z,98249.81
2022-08-26T23:26:46.978Z,98245.38
2022-08-26T23:29:16.170Z,98251.47
2022-08-26T23:31:43.660Z,98243.44
2022-08-26T23:34:29.870Z,98252.28
2022-08-26T23:36:59.309Z,98244.00
2022-08-26T23:39:30.006Z,98241.78
2022-08-26T23:41:58.026Z,98237.94
2022-08-26T23:44:26.533Z,98235.16
2022-08-26T23:46:56.630Z,98237.94
2022-08-26T23:49:25.246Z,98224.41
2022-08-26T23:52:12.238Z,98235.72
2022-08-26T23:54:40.693Z,98238.78
2022-08-26T23:57:09.324Z,98239.59
2022-08-26T23:59:39.411Z,98232.91
